RYR51AD LEPA-EDDK
Flight info
| Callsign | RYR51AD |
|---|---|
| Flight time | 1h 49m |
| Altitude | 38000 |
| Route | MEROS N853 LUMAS DCT MAXIR DCT LUSOL DCT BODRU DCT OKTET DCT IRMAR DCT KINES DCT VANAS DCT MOBLO DCT UBIMA DCT GILIR DCT PENDU DCT IXILU DCT EPL DCT JARNY DCT ROUSY M624 DIK N853 ARCKY T853 IBESA T860 ERUKI ERUKI1B |
| Aircraft | B738/M-SDE2E3FGHIRWXY/LB1 |
Departure
| Time | 2026-05-07 16:03 |
|---|---|
| Airport | Palma de Mallorca Airport (LEPA) |
Arrival
| Time | 2026-05-07 17:53 |
|---|---|
| Airport | Cologne Bonn Airport (EDDK) |
| Time | Latitude | Longitude | Altitude | Speed | Heading |
|---|---|---|---|---|---|
| 2026-05-07 15:18 | 39.55066 | 2.73579 | 34 ft | 0 kts | 164° |
| 2026-05-07 15:51 | 39.55087 | 2.73570 | 35 ft | 4 kts | 147° |
| 2026-05-07 15:52 | 39.55103 | 2.73548 | 36 ft | 4 kts | 96° |
| 2026-05-07 15:52 | 39.55100 | 2.73528 | 35 ft | 1 kts | 59° |
| 2026-05-07 15:52 | 39.55099 | 2.73524 | 35 ft | 0 kts | 59° |
| 2026-05-07 15:56 | 39.55101 | 2.73530 | 37 ft | 2 kts | 59° |
| 2026-05-07 15:56 | 39.55111 | 2.73550 | 35 ft | 4 kts | 59° |
| 2026-05-07 15:57 | 39.55130 | 2.73592 | 37 ft | 7 kts | 59° |
| 2026-05-07 15:57 | 39.55159 | 2.73653 | 37 ft | 9 kts | 59° |
| 2026-05-07 15:57 | 39.55175 | 2.73731 | 37 ft | 9 kts | 111° |
| 2026-05-07 15:57 | 39.55179 | 2.73809 | 37 ft | 9 kts | 65° |
| 2026-05-07 15:58 | 39.55151 | 2.73870 | 37 ft | 9 kts | 147° |
| 2026-05-07 15:58 | 39.55092 | 2.73916 | 37 ft | 11 kts | 149° |
| 2026-05-07 15:58 | 39.55019 | 2.73974 | 37 ft | 13 kts | 148° |
| 2026-05-07 15:58 | 39.54933 | 2.74042 | 37 ft | 15 kts | 148° |
| 2026-05-07 15:59 | 39.54848 | 2.74108 | 37 ft | 8 kts | 149° |
| 2026-05-07 15:59 | 39.54795 | 2.74119 | 37 ft | 8 kts | 211° |
| 2026-05-07 15:59 | 39.54757 | 2.74059 | 37 ft | 9 kts | 238° |
| 2026-05-07 15:59 | 39.54718 | 2.73975 | 37 ft | 13 kts | 238° |
| 2026-05-07 16:00 | 39.54664 | 2.73861 | 36 ft | 17 kts | 238° |
| 2026-05-07 16:00 | 39.54597 | 2.73721 | 36 ft | 20 kts | 238° |
| 2026-05-07 16:00 | 39.54519 | 2.73557 | 37 ft | 23 kts | 238° |
| 2026-05-07 16:00 | 39.54432 | 2.73371 | 37 ft | 25 kts | 238° |
| 2026-05-07 16:01 | 39.54341 | 2.73180 | 37 ft | 24 kts | 238° |
| 2026-05-07 16:01 | 39.54260 | 2.73008 | 37 ft | 16 kts | 238° |
| 2026-05-07 16:01 | 39.54204 | 2.72917 | 37 ft | 11 kts | 203° |
| 2026-05-07 16:01 | 39.54153 | 2.72970 | 37 ft | 11 kts | 100° |
| 2026-05-07 16:02 | 39.54151 | 2.73068 | 37 ft | 11 kts | 90° |
| 2026-05-07 16:02 | 39.54151 | 2.73168 | 37 ft | 12 kts | 88° |
| 2026-05-07 16:02 | 39.54177 | 2.73277 | 37 ft | 13 kts | 59° |
| 2026-05-07 16:02 | 39.54216 | 2.73360 | 37 ft | 11 kts | 58° |
| 2026-05-07 16:03 | 39.54328 | 2.73598 | 37 ft | 63 kts | 59° |
| 2026-05-07 16:03 | 39.54678 | 2.74336 | 37 ft | 127 kts | 58° |
| 2026-05-07 16:03 | 39.55241 | 2.75479 | 195 ft | 164 kts | 57° |
| 2026-05-07 16:03 | 39.55855 | 2.76689 | 977 ft | 159 kts | 61° |
| 2026-05-07 16:04 | 39.56416 | 2.77930 | 1766 ft | 160 kts | 61° |
| 2026-05-07 16:04 | 39.57004 | 2.79192 | 2401 ft | 170 kts | 61° |
| 2026-05-07 16:04 | 39.57638 | 2.80613 | 2760 ft | 193 kts | 62° |
| 2026-05-07 16:04 | 39.58333 | 2.82163 | 3136 ft | 204 kts | 62° |
| 2026-05-07 16:05 | 39.59064 | 2.83795 | 3603 ft | 213 kts | 61° |
| 2026-05-07 16:05 | 39.59809 | 2.85440 | 4345 ft | 212 kts | 62° |
| 2026-05-07 16:05 | 39.60556 | 2.87085 | 5030 ft | 212 kts | 61° |
| 2026-05-07 16:05 | 39.61311 | 2.88743 | 5618 ft | 215 kts | 61° |
| 2026-05-07 16:06 | 39.62084 | 2.90434 | 6180 ft | 220 kts | 61° |
| 2026-05-07 16:06 | 39.62878 | 2.92207 | 6503 ft | 236 kts | 62° |
| 2026-05-07 16:06 | 39.63708 | 2.94079 | 6924 ft | 246 kts | 62° |
| 2026-05-07 16:06 | 39.64589 | 2.96072 | 7287 ft | 266 kts | 62° |
| 2026-05-07 16:07 | 39.65522 | 2.98176 | 7987 ft | 269 kts | 62° |
| 2026-05-07 16:07 | 39.66468 | 3.00293 | 8797 ft | 273 kts | 61° |
| 2026-05-07 16:07 | 39.67426 | 3.02434 | 9579 ft | 277 kts | 63° |
| 2026-05-07 16:07 | 39.68409 | 3.04625 | 10209 ft | 285 kts | 62° |
| 2026-05-07 16:08 | 39.69448 | 3.06950 | 10417 ft | 310 kts | 62° |
| 2026-05-07 16:08 | 39.70553 | 3.09444 | 10866 ft | 324 kts | 62° |
| 2026-05-07 16:08 | 39.71682 | 3.12012 | 11534 ft | 329 kts | 62° |
| 2026-05-07 16:08 | 39.72807 | 3.14605 | 12372 ft | 331 kts | 63° |
| 2026-05-07 16:09 | 39.73921 | 3.17252 | 13181 ft | 336 kts | 65° |
| 2026-05-07 16:09 | 39.74986 | 3.19989 | 13982 ft | 341 kts | 66° |
| 2026-05-07 16:09 | 39.76091 | 3.22757 | 14614 ft | 347 kts | 64° |
| 2026-05-07 16:09 | 39.77252 | 3.25534 | 15207 ft | 353 kts | 63° |
| 2026-05-07 16:10 | 39.78644 | 3.28205 | 15793 ft | 360 kts | 52° |
| 2026-05-07 16:10 | 39.80281 | 3.30696 | 16452 ft | 365 kts | 50° |
| 2026-05-07 16:10 | 39.81982 | 3.33176 | 17069 ft | 370 kts | 50° |
| 2026-05-07 16:10 | 39.83711 | 3.35683 | 17675 ft | 375 kts | 50° |
| 2026-05-07 16:11 | 39.85454 | 3.38229 | 18272 ft | 379 kts | 50° |
| 2026-05-07 16:11 | 39.87190 | 3.40790 | 18760 ft | 383 kts | 50° |
| 2026-05-07 16:11 | 39.88954 | 3.43413 | 19235 ft | 387 kts | 51° |
| 2026-05-07 16:11 | 39.90733 | 3.46075 | 19717 ft | 391 kts | 51° |
| 2026-05-07 16:12 | 39.92525 | 3.48768 | 20199 ft | 395 kts | 51° |
| 2026-05-07 16:12 | 39.94329 | 3.51486 | 20668 ft | 399 kts | 51° |
| 2026-05-07 16:12 | 39.96147 | 3.54230 | 21138 ft | 402 kts | 51° |
| 2026-05-07 16:12 | 39.97985 | 3.57008 | 21600 ft | 406 kts | 51° |
| 2026-05-07 16:13 | 39.99844 | 3.59820 | 21997 ft | 412 kts | 51° |
| 2026-05-07 16:13 | 40.01727 | 3.62670 | 22411 ft | 416 kts | 51° |
| 2026-05-07 16:13 | 40.03625 | 3.65547 | 22841 ft | 420 kts | 51° |
| 2026-05-07 16:13 | 40.05538 | 3.68448 | 23272 ft | 424 kts | 51° |
| 2026-05-07 16:14 | 40.07473 | 3.71386 | 23645 ft | 429 kts | 51° |
| 2026-05-07 16:14 | 40.09425 | 3.74350 | 23977 ft | 432 kts | 51° |
| 2026-05-07 16:14 | 40.11391 | 3.77340 | 24327 ft | 436 kts | 51° |
| 2026-05-07 16:14 | 40.13374 | 3.80359 | 24672 ft | 439 kts | 51° |
| 2026-05-07 16:15 | 40.15373 | 3.83406 | 24956 ft | 444 kts | 51° |
| 2026-05-07 16:15 | 40.17392 | 3.86485 | 25254 ft | 448 kts | 51° |
| 2026-05-07 16:15 | 40.19427 | 3.89593 | 25618 ft | 450 kts | 51° |
| 2026-05-07 16:15 | 40.21442 | 3.92671 | 26005 ft | 451 kts | 51° |
| 2026-05-07 16:16 | 40.23491 | 3.95805 | 26324 ft | 455 kts | 51° |
| 2026-05-07 16:16 | 40.25556 | 3.98966 | 26626 ft | 458 kts | 51° |
| 2026-05-07 16:16 | 40.27630 | 4.02147 | 26929 ft | 461 kts | 51° |
| 2026-05-07 16:16 | 40.29720 | 4.05355 | 27240 ft | 464 kts | 51° |
| 2026-05-07 16:17 | 40.31820 | 4.08581 | 27570 ft | 466 kts | 51° |
| 2026-05-07 16:17 | 40.33927 | 4.11821 | 27891 ft | 468 kts | 51° |
| 2026-05-07 16:17 | 40.36046 | 4.15084 | 28175 ft | 471 kts | 51° |
| 2026-05-07 16:17 | 40.38177 | 4.18369 | 28444 ft | 474 kts | 51° |
| 2026-05-07 16:18 | 40.40322 | 4.21679 | 28621 ft | 480 kts | 51° |
| 2026-05-07 16:18 | 40.42484 | 4.25019 | 28953 ft | 481 kts | 51° |
| 2026-05-07 16:18 | 40.44655 | 4.28374 | 29261 ft | 482 kts | 51° |
| 2026-05-07 16:18 | 40.46836 | 4.31751 | 29519 ft | 486 kts | 51° |
| 2026-05-07 16:19 | 40.49216 | 4.34903 | 29693 ft | 490 kts | 36° |
| 2026-05-07 16:19 | 40.52187 | 4.37100 | 29939 ft | 489 kts | 18° |
| 2026-05-07 16:19 | 40.55459 | 4.38220 | 30195 ft | 486 kts | 7° |
| 2026-05-07 16:19 | 40.58797 | 4.38981 | 30440 ft | 487 kts | 6° |
| 2026-05-07 16:20 | 40.62106 | 4.39685 | 30632 ft | 489 kts | 6° |
| 2026-05-07 16:20 | 40.65474 | 4.40411 | 30831 ft | 492 kts | 6° |
| 2026-05-07 16:20 | 40.68857 | 4.41174 | 31051 ft | 494 kts | 6° |
| 2026-05-07 16:20 | 40.72243 | 4.41967 | 31281 ft | 495 kts | 7° |
| 2026-05-07 16:21 | 40.75639 | 4.42781 | 31488 ft | 497 kts | 7° |
| 2026-05-07 16:21 | 40.79047 | 4.43606 | 31693 ft | 499 kts | 7° |
| 2026-05-07 16:21 | 40.82462 | 4.44434 | 31943 ft | 499 kts | 7° |
| 2026-05-07 16:21 | 40.85881 | 4.45260 | 32206 ft | 500 kts | 7° |
| 2026-05-07 16:22 | 40.88152 | 4.45807 | 32371 ft | 500 kts | 7° |
| 2026-05-07 16:22 | 40.92685 | 4.46901 | 32741 ft | 500 kts | 6° |
| 2026-05-07 16:22 | 40.96103 | 4.47729 | 33034 ft | 499 kts | 6° |
| 2026-05-07 16:22 | 40.99517 | 4.48558 | 33304 ft | 499 kts | 6° |
| 2026-05-07 16:23 | 41.02933 | 4.49388 | 33555 ft | 499 kts | 6° |
| 2026-05-07 16:23 | 41.06354 | 4.50220 | 33786 ft | 501 kts | 6° |
| 2026-05-07 16:23 | 41.09795 | 4.51055 | 33850 ft | 505 kts | 6° |
| 2026-05-07 16:23 | 41.13264 | 4.51897 | 34040 ft | 506 kts | 6° |
| 2026-05-07 16:24 | 41.15597 | 4.52466 | 34241 ft | 505 kts | 6° |
| 2026-05-07 16:24 | 41.19037 | 4.53307 | 34601 ft | 501 kts | 6° |
| 2026-05-07 16:24 | 41.22455 | 4.54144 | 34915 ft | 498 kts | 6° |
| 2026-05-07 16:24 | 41.25817 | 4.54966 | 35151 ft | 498 kts | 6° |
| 2026-05-07 16:25 | 41.29230 | 4.55800 | 35306 ft | 500 kts | 6° |
| 2026-05-07 16:25 | 41.32657 | 4.56638 | 35474 ft | 501 kts | 6° |
| 2026-05-07 16:25 | 41.36078 | 4.57476 | 35732 ft | 499 kts | 6° |
| 2026-05-07 16:25 | 41.39466 | 4.58310 | 36171 ft | 492 kts | 6° |
| 2026-05-07 16:26 | 41.42823 | 4.59137 | 36514 ft | 489 kts | 6° |
| 2026-05-07 16:26 | 41.46174 | 4.59960 | 36672 ft | 491 kts | 6° |
| 2026-05-07 16:26 | 41.49536 | 4.60786 | 36806 ft | 492 kts | 6° |
| 2026-05-07 16:26 | 41.52906 | 4.61615 | 36985 ft | 492 kts | 6° |
| 2026-05-07 16:27 | 41.56271 | 4.62445 | 37234 ft | 491 kts | 6° |
| 2026-05-07 16:27 | 41.59621 | 4.63274 | 37511 ft | 488 kts | 6° |
| 2026-05-07 16:27 | 41.62958 | 4.64099 | 37771 ft | 487 kts | 6° |
| 2026-05-07 16:27 | 41.66285 | 4.64922 | 37952 ft | 486 kts | 6° |
| 2026-05-07 16:28 | 41.69626 | 4.65749 | 37971 ft | 490 kts | 6° |
| 2026-05-07 16:28 | 41.76163 | 4.68724 | 37964 ft | 505 kts | 26° |
| 2026-05-07 16:29 | 41.82243 | 4.73579 | 37968 ft | 512 kts | 30° |
| 2026-05-07 16:29 | 41.88301 | 4.78614 | 37968 ft | 517 kts | 30° |
| 2026-05-07 16:30 | 41.94456 | 4.83660 | 37958 ft | 520 kts | 29° |
| 2026-05-07 16:30 | 42.00658 | 4.88683 | 37967 ft | 520 kts | 29° |
| 2026-05-07 16:31 | 42.06870 | 4.93706 | 37964 ft | 520 kts | 29° |
| 2026-05-07 16:31 | 42.13063 | 4.98729 | 37960 ft | 519 kts | 29° |
| 2026-05-07 16:32 | 42.19242 | 5.03757 | 37960 ft | 517 kts | 29° |
| 2026-05-07 16:32 | 42.25350 | 5.08739 | 37959 ft | 516 kts | 29° |
| 2026-05-07 16:33 | 42.31504 | 5.13771 | 37971 ft | 514 kts | 29° |
| 2026-05-07 16:33 | 42.37619 | 5.18782 | 37954 ft | 513 kts | 29° |
| 2026-05-07 16:34 | 42.43714 | 5.23788 | 37962 ft | 512 kts | 29° |
| 2026-05-07 16:34 | 42.49756 | 5.28761 | 37984 ft | 511 kts | 29° |
| 2026-05-07 16:35 | 42.55833 | 5.33776 | 37940 ft | 511 kts | 29° |
| 2026-05-07 16:35 | 42.61893 | 5.38787 | 37954 ft | 510 kts | 29° |
| 2026-05-07 16:36 | 42.67946 | 5.43805 | 37965 ft | 509 kts | 29° |
| 2026-05-07 16:36 | 42.73990 | 5.48827 | 37959 ft | 509 kts | 29° |
| 2026-05-07 16:37 | 42.80033 | 5.53858 | 37961 ft | 509 kts | 29° |
| 2026-05-07 16:37 | 42.86074 | 5.58901 | 37959 ft | 509 kts | 29° |
| 2026-05-07 16:38 | 42.92116 | 5.63956 | 37965 ft | 510 kts | 29° |
| 2026-05-07 16:38 | 42.98129 | 5.68999 | 37961 ft | 510 kts | 29° |
| 2026-05-07 16:39 | 43.04179 | 5.74085 | 37954 ft | 510 kts | 29° |
| 2026-05-07 16:39 | 43.10216 | 5.79171 | 37972 ft | 510 kts | 29° |
| 2026-05-07 16:40 | 43.16263 | 5.84278 | 37966 ft | 510 kts | 29° |
| 2026-05-07 16:40 | 43.22303 | 5.89392 | 37970 ft | 510 kts | 29° |
| 2026-05-07 16:41 | 43.28337 | 5.94512 | 37976 ft | 510 kts | 29° |
| 2026-05-07 16:41 | 43.34375 | 5.99646 | 37952 ft | 511 kts | 29° |
| 2026-05-07 16:42 | 43.40774 | 6.03616 | 37944 ft | 501 kts | 11° |
| 2026-05-07 16:42 | 43.47561 | 6.05065 | 37969 ft | 490 kts | 358° |
| 2026-05-07 16:43 | 43.54372 | 6.05611 | 37944 ft | 490 kts | 358° |
| 2026-05-07 16:43 | 43.61174 | 6.06229 | 37929 ft | 490 kts | 359° |
| 2026-05-07 16:44 | 43.67938 | 6.06914 | 37941 ft | 490 kts | 359° |
| 2026-05-07 16:44 | 43.74738 | 6.07683 | 37913 ft | 492 kts | 4° |
| 2026-05-07 16:45 | 43.81336 | 6.10444 | 37930 ft | 501 kts | 22° |
| 2026-05-07 16:45 | 43.87573 | 6.14785 | 37959 ft | 502 kts | 24° |
| 2026-05-07 16:46 | 43.93798 | 6.19169 | 37922 ft | 501 kts | 23° |
| 2026-05-07 16:46 | 44.00039 | 6.23471 | 37925 ft | 501 kts | 22° |
| 2026-05-07 16:47 | 44.06296 | 6.27753 | 37959 ft | 500 kts | 22° |
| 2026-05-07 16:47 | 44.12504 | 6.32015 | 37944 ft | 499 kts | 23° |
| 2026-05-07 16:48 | 44.18724 | 6.36301 | 37946 ft | 498 kts | 23° |
| 2026-05-07 16:48 | 44.24926 | 6.40583 | 37963 ft | 497 kts | 23° |
| 2026-05-07 16:49 | 44.31124 | 6.44870 | 37948 ft | 497 kts | 23° |
| 2026-05-07 16:49 | 44.37317 | 6.49166 | 37951 ft | 496 kts | 23° |
| 2026-05-07 16:50 | 44.43494 | 6.53460 | 37991 ft | 496 kts | 23° |
| 2026-05-07 16:50 | 44.49668 | 6.57763 | 37966 ft | 495 kts | 23° |
| 2026-05-07 16:51 | 44.55847 | 6.62076 | 37952 ft | 495 kts | 23° |
| 2026-05-07 16:51 | 44.61968 | 6.66359 | 37957 ft | 495 kts | 23° |
| 2026-05-07 16:52 | 44.68125 | 6.70691 | 37951 ft | 495 kts | 23° |
| 2026-05-07 16:52 | 44.74292 | 6.75016 | 37954 ft | 495 kts | 23° |
| 2026-05-07 16:53 | 44.80704 | 6.78215 | 37990 ft | 485 kts | 6° |
| 2026-05-07 16:53 | 44.87351 | 6.78748 | 38010 ft | 474 kts | 352° |
| 2026-05-07 16:54 | 44.93945 | 6.78213 | 37943 ft | 473 kts | 352° |
| 2026-05-07 16:54 | 45.00488 | 6.77709 | 38010 ft | 470 kts | 352° |
| 2026-05-07 16:55 | 45.07035 | 6.77261 | 37975 ft | 471 kts | 352° |
| 2026-05-07 16:55 | 45.13539 | 6.76833 | 37984 ft | 471 kts | 352° |
| 2026-05-07 16:56 | 45.20103 | 6.76398 | 38010 ft | 472 kts | 353° |
| 2026-05-07 16:56 | 45.29985 | 6.75738 | 37981 ft | 474 kts | 353° |
| 2026-05-07 16:57 | 45.36582 | 6.75298 | 37972 ft | 474 kts | 353° |
| 2026-05-07 16:57 | 45.43168 | 6.74852 | 37990 ft | 475 kts | 353° |
| 2026-05-07 16:58 | 45.49766 | 6.74414 | 37974 ft | 474 kts | 352° |
| 2026-05-07 16:58 | 45.56361 | 6.73954 | 37978 ft | 473 kts | 352° |
| 2026-05-07 16:59 | 45.62895 | 6.73509 | 37974 ft | 473 kts | 353° |
| 2026-05-07 16:59 | 45.69446 | 6.73063 | 37988 ft | 469 kts | 353° |
| 2026-05-07 17:00 | 45.75978 | 6.72612 | 37985 ft | 470 kts | 352° |
| 2026-05-07 17:00 | 45.82534 | 6.72159 | 37985 ft | 472 kts | 353° |
| 2026-05-07 17:01 | 45.89095 | 6.71715 | 37969 ft | 471 kts | 353° |
| 2026-05-07 17:01 | 45.95646 | 6.71271 | 37970 ft | 471 kts | 353° |
| 2026-05-07 17:02 | 46.02191 | 6.70826 | 37996 ft | 471 kts | 353° |
| 2026-05-07 17:02 | 46.08722 | 6.70380 | 37995 ft | 470 kts | 353° |
| 2026-05-07 17:03 | 46.15131 | 6.69095 | 37976 ft | 460 kts | 338° |
| 2026-05-07 17:03 | 46.21180 | 6.66133 | 37981 ft | 458 kts | 336° |
| 2026-05-07 17:04 | 46.27195 | 6.63096 | 37995 ft | 458 kts | 336° |
| 2026-05-07 17:04 | 46.33193 | 6.60124 | 37993 ft | 458 kts | 336° |
| 2026-05-07 17:05 | 46.39237 | 6.57165 | 38003 ft | 458 kts | 337° |
| 2026-05-07 17:05 | 46.45273 | 6.54214 | 37990 ft | 458 kts | 337° |
| 2026-05-07 17:06 | 46.51301 | 6.51258 | 37998 ft | 457 kts | 337° |
| 2026-05-07 17:06 | 46.57319 | 6.48297 | 38014 ft | 457 kts | 337° |
| 2026-05-07 17:07 | 46.63341 | 6.45327 | 38017 ft | 457 kts | 337° |
| 2026-05-07 17:07 | 46.69360 | 6.42351 | 38013 ft | 456 kts | 337° |
| 2026-05-07 17:08 | 46.75372 | 6.39373 | 38019 ft | 456 kts | 337° |
| 2026-05-07 17:08 | 46.81387 | 6.36385 | 38032 ft | 457 kts | 337° |
| 2026-05-07 17:09 | 46.87413 | 6.33384 | 38028 ft | 457 kts | 337° |
| 2026-05-07 17:09 | 46.93439 | 6.30377 | 38022 ft | 458 kts | 337° |
| 2026-05-07 17:10 | 46.99470 | 6.27360 | 38029 ft | 458 kts | 337° |
| 2026-05-07 17:10 | 47.05501 | 6.24335 | 38033 ft | 458 kts | 336° |
| 2026-05-07 17:11 | 47.11257 | 6.20616 | 38033 ft | 454 kts | 329° |
| 2026-05-07 17:11 | 47.16880 | 6.16391 | 38033 ft | 454 kts | 329° |
| 2026-05-07 17:12 | 47.22531 | 6.12229 | 38053 ft | 455 kts | 330° |
| 2026-05-07 17:12 | 47.28209 | 6.08119 | 38037 ft | 455 kts | 330° |
| 2026-05-07 17:13 | 47.34023 | 6.04410 | 38028 ft | 460 kts | 341° |
| 2026-05-07 17:13 | 47.40408 | 6.03168 | 38035 ft | 467 kts | 357° |
| 2026-05-07 17:14 | 47.46914 | 6.03405 | 38046 ft | 468 kts | 358° |
| 2026-05-07 17:14 | 47.52370 | 6.03626 | 38028 ft | 468 kts | 358° |
| 2026-05-07 17:15 | 47.58885 | 6.03805 | 38031 ft | 468 kts | 357° |
| 2026-05-07 17:15 | 47.65359 | 6.03945 | 38045 ft | 468 kts | 357° |
| 2026-05-07 17:16 | 47.71867 | 6.04089 | 38031 ft | 468 kts | 357° |
| 2026-05-07 17:16 | 47.78379 | 6.04257 | 38031 ft | 468 kts | 358° |
| 2026-05-07 17:17 | 47.84895 | 6.04466 | 38039 ft | 468 kts | 358° |
| 2026-05-07 17:17 | 47.91413 | 6.04675 | 38043 ft | 468 kts | 358° |
| 2026-05-07 17:18 | 47.97929 | 6.04880 | 38045 ft | 468 kts | 358° |
| 2026-05-07 17:18 | 48.04448 | 6.05083 | 38044 ft | 468 kts | 358° |
| 2026-05-07 17:19 | 48.10925 | 6.05286 | 38053 ft | 469 kts | 358° |
| 2026-05-07 17:19 | 48.17438 | 6.05489 | 38045 ft | 468 kts | 358° |
| 2026-05-07 17:20 | 48.23958 | 6.05695 | 38054 ft | 468 kts | 358° |
| 2026-05-07 17:20 | 48.30475 | 6.05900 | 38051 ft | 469 kts | 358° |
| 2026-05-07 17:21 | 48.36994 | 6.06150 | 38048 ft | 469 kts | 359° |
| 2026-05-07 17:21 | 48.43522 | 6.06461 | 38039 ft | 469 kts | 359° |
| 2026-05-07 17:22 | 48.50037 | 6.06773 | 38056 ft | 469 kts | 359° |
| 2026-05-07 17:22 | 48.56564 | 6.07077 | 38046 ft | 469 kts | 359° |
| 2026-05-07 17:23 | 48.63081 | 6.07377 | 38051 ft | 469 kts | 359° |
| 2026-05-07 17:23 | 48.69605 | 6.07677 | 38045 ft | 469 kts | 359° |
| 2026-05-07 17:24 | 48.76082 | 6.07977 | 38048 ft | 469 kts | 359° |
| 2026-05-07 17:24 | 48.82606 | 6.08280 | 38047 ft | 469 kts | 359° |
| 2026-05-07 17:25 | 48.89136 | 6.08584 | 38044 ft | 469 kts | 359° |
| 2026-05-07 17:25 | 48.95657 | 6.08888 | 38058 ft | 469 kts | 359° |
| 2026-05-07 17:26 | 49.02181 | 6.09193 | 38047 ft | 469 kts | 359° |
| 2026-05-07 17:26 | 49.08705 | 6.09500 | 38047 ft | 469 kts | 359° |
| 2026-05-07 17:27 | 49.15232 | 6.09806 | 38053 ft | 469 kts | 359° |
| 2026-05-07 17:27 | 49.21744 | 6.10119 | 38047 ft | 469 kts | 359° |
| 2026-05-07 17:28 | 49.28264 | 6.10465 | 38046 ft | 469 kts | 359° |
| 2026-05-07 17:28 | 49.34787 | 6.10816 | 37941 ft | 470 kts | 359° |
| 2026-05-07 17:29 | 49.38083 | 6.10991 | 37391 ft | 473 kts | 359° |
| 2026-05-07 17:29 | 49.41346 | 6.11165 | 36827 ft | 468 kts | 359° |
| 2026-05-07 17:29 | 49.44596 | 6.11339 | 36229 ft | 465 kts | 359° |
| 2026-05-07 17:29 | 49.47820 | 6.11510 | 35647 ft | 463 kts | 359° |
| 2026-05-07 17:30 | 49.51035 | 6.11657 | 35014 ft | 461 kts | 359° |
| 2026-05-07 17:30 | 49.54236 | 6.11778 | 34376 ft | 460 kts | 359° |
| 2026-05-07 17:30 | 49.57429 | 6.11891 | 33658 ft | 459 kts | 359° |
| 2026-05-07 17:30 | 49.60624 | 6.12004 | 32905 ft | 458 kts | 359° |
| 2026-05-07 17:31 | 49.63810 | 6.12119 | 32194 ft | 457 kts | 359° |
| 2026-05-07 17:31 | 49.66941 | 6.12237 | 31461 ft | 456 kts | 359° |
| 2026-05-07 17:31 | 49.70155 | 6.12359 | 30709 ft | 456 kts | 359° |
| 2026-05-07 17:31 | 49.73285 | 6.12479 | 29950 ft | 456 kts | 359° |
| 2026-05-07 17:32 | 49.76461 | 6.12601 | 29049 ft | 456 kts | 359° |
| 2026-05-07 17:32 | 49.79633 | 6.12724 | 28197 ft | 456 kts | 359° |
| 2026-05-07 17:32 | 49.82807 | 6.12847 | 27323 ft | 456 kts | 359° |
| 2026-05-07 17:32 | 49.85966 | 6.12969 | 26763 ft | 450 kts | 359° |
| 2026-05-07 17:33 | 49.89076 | 6.13047 | 26160 ft | 445 kts | 358° |
| 2026-05-07 17:33 | 49.92153 | 6.13067 | 25597 ft | 440 kts | 358° |
| 2026-05-07 17:33 | 49.95198 | 6.13067 | 25045 ft | 434 kts | 358° |
| 2026-05-07 17:33 | 49.98203 | 6.13066 | 24507 ft | 432 kts | 358° |
| 2026-05-07 17:34 | 50.01240 | 6.13068 | 23988 ft | 444 kts | 358° |
| 2026-05-07 17:34 | 50.04341 | 6.13075 | 23347 ft | 448 kts | 358° |
| 2026-05-07 17:34 | 50.07426 | 6.13091 | 22710 ft | 441 kts | 358° |
| 2026-05-07 17:34 | 50.10473 | 6.13110 | 22145 ft | 434 kts | 358° |
| 2026-05-07 17:35 | 50.13468 | 6.13130 | 21577 ft | 427 kts | 358° |
| 2026-05-07 17:35 | 50.16420 | 6.13147 | 21021 ft | 421 kts | 358° |
| 2026-05-07 17:35 | 50.19332 | 6.13163 | 20477 ft | 416 kts | 358° |
| 2026-05-07 17:35 | 50.22199 | 6.13180 | 19951 ft | 411 kts | 358° |
| 2026-05-07 17:36 | 50.25031 | 6.13196 | 19427 ft | 406 kts | 358° |
| 2026-05-07 17:36 | 50.27836 | 6.13414 | 19150 ft | 404 kts | 7° |
| 2026-05-07 17:36 | 50.30571 | 6.14493 | 19086 ft | 406 kts | 18° |
| 2026-05-07 17:36 | 50.33098 | 6.16315 | 19040 ft | 393 kts | 30° |
| 2026-05-07 17:37 | 50.35345 | 6.18613 | 19043 ft | 379 kts | 33° |
| 2026-05-07 17:37 | 50.37529 | 6.20930 | 19045 ft | 380 kts | 33° |
| 2026-05-07 17:37 | 50.39738 | 6.23265 | 18758 ft | 387 kts | 32° |
| 2026-05-07 17:37 | 50.41977 | 6.25598 | 18396 ft | 384 kts | 32° |
| 2026-05-07 17:38 | 50.44196 | 6.27891 | 18000 ft | 380 kts | 32° |
| 2026-05-07 17:38 | 50.46394 | 6.30158 | 17590 ft | 376 kts | 32° |
| 2026-05-07 17:38 | 50.48428 | 6.32716 | 17124 ft | 375 kts | 45° |
| 2026-05-07 17:38 | 50.50052 | 6.35914 | 16636 ft | 375 kts | 57° |
| 2026-05-07 17:39 | 50.51212 | 6.39469 | 16166 ft | 375 kts | 66° |
| 2026-05-07 17:39 | 50.52202 | 6.43215 | 15694 ft | 374 kts | 67° |
| 2026-05-07 17:39 | 50.53195 | 6.47013 | 15220 ft | 373 kts | 67° |
| 2026-05-07 17:39 | 50.54178 | 6.50698 | 14713 ft | 373 kts | 67° |
| 2026-05-07 17:40 | 50.55181 | 6.54406 | 14148 ft | 369 kts | 66° |
| 2026-05-07 17:40 | 50.56171 | 6.58046 | 13565 ft | 362 kts | 66° |
| 2026-05-07 17:40 | 50.57143 | 6.61620 | 12955 ft | 354 kts | 66° |
| 2026-05-07 17:40 | 50.58092 | 6.65116 | 12352 ft | 347 kts | 66° |
| 2026-05-07 17:41 | 50.59025 | 6.68555 | 11767 ft | 341 kts | 66° |
| 2026-05-07 17:41 | 50.59940 | 6.71941 | 11193 ft | 336 kts | 67° |
| 2026-05-07 17:41 | 50.60833 | 6.75269 | 10744 ft | 327 kts | 68° |
| 2026-05-07 17:41 | 50.61477 | 6.78585 | 10622 ft | 315 kts | 77° |
| 2026-05-07 17:42 | 50.61947 | 6.81912 | 10501 ft | 311 kts | 77° |
| 2026-05-07 17:42 | 50.62722 | 6.85051 | 10314 ft | 311 kts | 56° |
| 2026-05-07 17:42 | 50.64228 | 6.87458 | 9942 ft | 311 kts | 31° |
| 2026-05-07 17:42 | 50.66195 | 6.88653 | 9532 ft | 301 kts | 6° |
| 2026-05-07 17:43 | 50.68228 | 6.88433 | 9131 ft | 291 kts | 341° |
| 2026-05-07 17:43 | 50.70073 | 6.87254 | 8752 ft | 282 kts | 334° |
| 2026-05-07 17:43 | 50.71832 | 6.85945 | 8391 ft | 277 kts | 333° |
| 2026-05-07 17:43 | 50.73529 | 6.84539 | 7988 ft | 274 kts | 330° |
| 2026-05-07 17:44 | 50.75192 | 6.83121 | 7590 ft | 270 kts | 332° |
| 2026-05-07 17:44 | 50.76846 | 6.81758 | 7202 ft | 266 kts | 332° |
| 2026-05-07 17:44 | 50.78469 | 6.80420 | 6828 ft | 261 kts | 332° |
| 2026-05-07 17:44 | 50.80068 | 6.79107 | 6459 ft | 257 kts | 333° |
| 2026-05-07 17:45 | 50.81600 | 6.77695 | 6049 ft | 254 kts | 319° |
| 2026-05-07 17:45 | 50.82590 | 6.75439 | 5648 ft | 251 kts | 289° |
| 2026-05-07 17:45 | 50.82726 | 6.72718 | 5263 ft | 250 kts | 259° |
| 2026-05-07 17:45 | 50.81981 | 6.70267 | 4890 ft | 250 kts | 229° |
| 2026-05-07 17:46 | 50.80565 | 6.68732 | 4501 ft | 249 kts | 198° |
| 2026-05-07 17:46 | 50.78866 | 6.68551 | 4191 ft | 246 kts | 166° |
| 2026-05-07 17:46 | 50.77390 | 6.69769 | 4074 ft | 239 kts | 134° |
| 2026-05-07 17:46 | 50.76576 | 6.71922 | 4012 ft | 229 kts | 102° |
| 2026-05-07 17:47 | 50.76368 | 6.74369 | 4005 ft | 221 kts | 94° |
| 2026-05-07 17:47 | 50.76218 | 6.76753 | 3986 ft | 218 kts | 93° |
| 2026-05-07 17:47 | 50.76326 | 6.79077 | 3950 ft | 210 kts | 76° |
| 2026-05-07 17:47 | 50.76586 | 6.81286 | 3930 ft | 201 kts | 80° |
| 2026-05-07 17:48 | 50.76901 | 6.83305 | 3885 ft | 190 kts | 60° |
| 2026-05-07 17:48 | 50.77551 | 6.85045 | 3790 ft | 181 kts | 59° |
| 2026-05-07 17:48 | 50.78126 | 6.86763 | 3573 ft | 174 kts | 61° |
| 2026-05-07 17:48 | 50.78670 | 6.88455 | 3390 ft | 172 kts | 62° |
| 2026-05-07 17:49 | 50.79176 | 6.90064 | 3215 ft | 166 kts | 62° |
| 2026-05-07 17:49 | 50.79679 | 6.91684 | 3036 ft | 156 kts | 62° |
| 2026-05-07 17:49 | 50.80149 | 6.93192 | 2821 ft | 149 kts | 62° |
| 2026-05-07 17:49 | 50.80597 | 6.94638 | 2663 ft | 149 kts | 62° |
| 2026-05-07 17:50 | 50.81043 | 6.96082 | 2455 ft | 145 kts | 61° |
| 2026-05-07 17:50 | 50.81478 | 6.97501 | 2255 ft | 142 kts | 62° |
| 2026-05-07 17:50 | 50.81906 | 6.98895 | 2071 ft | 140 kts | 62° |
| 2026-05-07 17:50 | 50.82332 | 7.00283 | 1887 ft | 140 kts | 62° |
| 2026-05-07 17:51 | 50.82757 | 7.01676 | 1703 ft | 141 kts | 63° |
| 2026-05-07 17:51 | 50.83181 | 7.03062 | 1503 ft | 140 kts | 62° |
| 2026-05-07 17:51 | 50.83605 | 7.04451 | 1343 ft | 139 kts | 62° |
| 2026-05-07 17:51 | 50.84027 | 7.05835 | 1156 ft | 141 kts | 63° |
| 2026-05-07 17:52 | 50.84441 | 7.07194 | 962 ft | 141 kts | 63° |
| 2026-05-07 17:52 | 50.84867 | 7.08568 | 779 ft | 140 kts | 64° |
| 2026-05-07 17:52 | 50.85279 | 7.09964 | 581 ft | 139 kts | 63° |
| 2026-05-07 17:52 | 50.85700 | 7.11315 | 423 ft | 139 kts | 64° |
| 2026-05-07 17:53 | 50.86098 | 7.12645 | 264 ft | 134 kts | 64° |
| 2026-05-07 17:53 | 50.86455 | 7.13827 | 254 ft | 88 kts | 65° |
| 2026-05-07 17:53 | 50.86578 | 7.14239 | 259 ft | 14 kts | 62° |
| 2026-05-07 17:53 | 50.86621 | 7.14285 | 260 ft | 7 kts | 354° |
| 2026-05-07 17:54 | 50.86661 | 7.14242 | 259 ft | 8 kts | 318° |
| 2026-05-07 17:54 | 50.86706 | 7.14177 | 257 ft | 10 kts | 318° |
| 2026-05-07 17:54 | 50.86777 | 7.14126 | 254 ft | 12 kts | 341° |
| 2026-05-07 17:54 | 50.86840 | 7.14044 | 254 ft | 12 kts | 317° |
| 2026-05-07 17:55 | 50.86902 | 7.13954 | 251 ft | 14 kts | 317° |
| 2026-05-07 17:55 | 50.86984 | 7.13835 | 243 ft | 18 kts | 317° |
| 2026-05-07 17:55 | 50.87080 | 7.13696 | 240 ft | 20 kts | 317° |
| 2026-05-07 17:55 | 50.87183 | 7.13547 | 238 ft | 21 kts | 317° |
| 2026-05-07 17:56 | 50.87292 | 7.13390 | 232 ft | 22 kts | 317° |
| 2026-05-07 17:56 | 50.87403 | 7.13230 | 231 ft | 21 kts | 317° |
| 2026-05-07 17:56 | 50.87511 | 7.13074 | 231 ft | 21 kts | 317° |
| 2026-05-07 17:56 | 50.87615 | 7.12922 | 231 ft | 20 kts | 317° |
| 2026-05-07 17:57 | 50.87716 | 7.12776 | 231 ft | 18 kts | 317° |
| 2026-05-07 17:57 | 50.87721 | 7.12768 | 231 ft | 0 kts | 317° |
| 2026-05-07 17:57 | 50.87753 | 7.12723 | 231 ft | 11 kts | 317° |
| 2026-05-07 17:57 | 50.87780 | 7.12597 | 231 ft | 15 kts | 267° |
| 2026-05-07 17:58 | 50.87791 | 7.12481 | 233 ft | 10 kts | 287° |
| 2026-05-07 17:58 | 50.87802 | 7.12427 | 231 ft | 1 kts | 288° |
| 2026-05-07 17:58 | 50.87803 | 7.12420 | 231 ft | 0 kts | 288° |